Time;durP1;ratioP1;P1;durP2;ratioP2;P2;SDS_P1;SDS_P2;PMS_P1;PMS_P2;Temp;Humidity;BMP_temperature;BMP_pressure;BME280_temperature;BME280_humidity;BME280_pressure;Samples;Min_cycle;Max_cycle;Signal;HPM_P1;HPM_P2
2023/04/30 00:03:09;;;;;;;19.00;17.20;;;;;;;10.73;89.87;99270.80;436970;1251;140030;-67
2023/04/30 00:13:16;;;;;;;17.60;15.80;;;;;;;10.68;90.51;99272.70;436840;1251;141379;-65
2023/04/30 00:23:21;;;;;;;17.70;15.90;;;;;;;10.66;91.31;99273.38;436891;1254;139882;-67
2023/04/30 00:33:27;;;;;;;17.20;15.40;;;;;;;10.52;91.89;99287.64;436412;1250;140057;-65
2023/04/30 00:43:34;;;;;;;20.00;17.80;;;;;;;10.18;91.72;99303.17;436622;1250;140679;-66
2023/04/30 00:53:41;;;;;;;20.60;18.30;;;;;;;9.66;91.33;99327.70;436931;1254;139931;-65
2023/04/30 01:03:47;;;;;;;21.00;18.70;;;;;;;9.26;91.21;99346.41;436222;1250;141219;-64
2023/04/30 01:14:01;;;;;;;21.70;18.00;;;;;;;9.05;91.58;99357.55;437315;1256;139875;-66
2023/04/30 01:24:29;;;;;;;20.00;16.70;;;;;;;8.79;92.22;99373.41;436346;1250;139832;-66
2023/04/30 01:34:35;;;;;;;17.20;15.30;;;;;;;8.45;92.10;99394.58;436299;1250;140092;-65
2023/04/30 01:45:01;;;;;;;13.00;11.60;;;;;;;8.26;92.44;99410.09;436339;1250;139338;-64
2023/04/30 01:55:13;;;;;;;11.90;10.20;;;;;;;8.05;92.22;99419.30;436411;1251;139215;-66
2023/04/30 02:05:19;;;;;;;11.60;9.90;;;;;;;7.86;91.49;99433.96;436295;1251;139519;-65
2023/04/30 02:15:26;;;;;;;12.20;9.80;;;;;;;7.71;90.85;99446.42;436644;1254;138885;-64
2023/04/30 02:25:36;;;;;;;13.40;10.40;;;;;;;7.57;90.24;99460.05;436559;1254;139452;-66
2023/04/30 02:35:42;;;;;;;11.20;10.00;;;;;;;7.51;89.98;99469.44;436713;1254;139555;-66
2023/04/30 02:45:48;;;;;;;13.30;9.30;;;;;;;7.43;89.76;99474.73;436627;1251;139181;-66
2023/04/30 02:55:54;;;;;;;11.30;9.30;;;;;;;7.35;89.63;99480.90;436747;1254;139260;-66
2023/04/30 03:05:59;;;;;;;13.30;10.40;;;;;;;7.30;89.42;99491.96;436469;1254;140015;-66
2023/04/30 03:16:06;;;;;;;11.90;10.70;;;;;;;7.26;89.14;99495.98;436414;1254;141518;-67
2023/04/30 03:26:12;;;;;;;11.90;10.70;;;;;;;7.21;88.88;99511.73;437089;1255;139655;-67
2023/04/30 03:36:18;;;;;;;11.60;10.20;;;;;;;7.19;88.18;99521.80;436718;1251;139751;-66
2023/04/30 03:46:23;;;;;;;11.50;9.20;;;;;;;6.93;87.53;99527.93;436297;1254;139431;-66
2023/04/30 03:56:29;;;;;;;14.30;9.20;;;;;;;6.75;87.18;99537.86;436596;1256;139891;-67
2023/04/30 04:06:35;;;;;;;12.40;8.90;;;;;;;6.72;86.75;99556.60;436785;1251;139659;-67
2023/04/30 04:16:41;;;;;;;10.30;8.00;;;;;;;6.85;86.14;99575.49;436797;1256;140445;-65
2023/04/30 04:26:47;;;;;;;10.20;7.90;;;;;;;6.96;85.00;99585.41;436520;1254;139740;-66
2023/04/30 04:36:53;;;;;;;10.90;7.80;;;;;;;7.08;83.81;99591.07;436701;1255;139094;-65
2023/04/30 04:46:58;;;;;;;8.90;6.90;;;;;;;7.26;82.66;99608.83;436998;1253;141101;-66
2023/04/30 04:57:04;;;;;;;13.70;7.70;;;;;;;7.46;81.74;99622.13;436895;1254;139924;-68
2023/04/30 05:07:10;;;;;;;9.40;6.80;;;;;;;10.78;81.30;99635.46;436361;1255;140662;-66
2023/04/30 05:17:16;;;;;;;6.00;5.40;;;;;;;19.25;68.09;99642.94;436402;1255;140624;-66
2023/04/30 05:27:22;;;;;;;6.40;5.40;;;;;;;24.04;57.42;99652.85;436563;1251;139742;-66
2023/04/30 05:37:27;;;;;;;5.60;5.10;;;;;;;26.60;48.63;99661.33;436567;1255;138887;-65
2023/04/30 05:47:33;;;;;;;5.60;5.10;;;;;;;28.53;42.79;99681.63;436400;1251;138615;-65
2023/04/30 05:57:39;;;;;;;5.60;4.50;;;;;;;30.22;38.08;99693.98;436560;1254;138923;-65
2023/04/30 06:07:45;;;;;;;6.40;4.10;;;;;;;31.29;34.71;99698.27;436533;1256;139530;-65
2023/04/30 06:17:51;;;;;;;5.50;3.40;;;;;;;32.76;31.74;99703.39;436971;1256;138440;-66
2023/04/30 06:27:57;;;;;;;5.20;3.70;;;;;;;33.74;28.88;99709.23;436750;1256;138523;-64
2023/04/30 06:38:03;;;;;;;5.30;3.00;;;;;;;34.13;27.05;99718.27;436668;1254;138942;-65
2023/04/30 06:48:08;;;;;;;3.40;2.70;;;;;;;35.27;24.95;99723.40;436491;1251;139465;-66
2023/04/30 06:58:14;;;;;;;3.20;2.90;;;;;;;35.07;23.95;99723.67;437914;1254;139464;-65
2023/04/30 07:08:21;;;;;;;3.00;2.10;;;;;;;35.98;22.59;99729.23;436889;1254;138914;-66
2023/04/30 07:18:26;;;;;;;4.20;2.20;;;;;;;36.82;21.69;99737.87;437165;1251;138794;-65
2023/04/30 07:28:32;;;;;;;2.80;2.30;;;;;;;37.33;20.16;99728.35;436577;1251;139239;-61
2023/04/30 07:38:38;;;;;;;2.10;1.80;;;;;;;37.97;19.36;99741.12;436257;1254;139163;-61
2023/04/30 07:48:44;;;;;;;2.30;2.00;;;;;;;36.91;18.80;99749.48;436562;1251;139033;-61
2023/04/30 07:58:50;;;;;;;9.00;2.00;;;;;;;37.04;18.15;99754.80;437691;1250;138972;-61
2023/04/30 08:08:56;;;;;;;2.70;1.90;;;;;;;35.26;18.00;99762.07;436640;1254;138891;-61
2023/04/30 08:19:03;;;;;;;2.80;2.00;;;;;;;31.67;18.88;99770.09;436696;1252;140239;-61
2023/04/30 08:29:09;;;;;;;3.40;2.00;;;;;;;23.36;22.16;99784.44;436406;1251;138562;-59
2023/04/30 08:39:15;;;;;;;2.40;1.60;;;;;;;18.20;26.36;99804.90;436173;1251;138627;-59
2023/04/30 08:49:21;;;;;;;2.70;2.40;;;;;;;16.59;28.43;99815.59;436296;1251;138364;-60
2023/04/30 08:59:29;;;;;;;4.10;2.20;;;;;;;15.56;31.27;99815.48;436822;1254;139924;-60
2023/04/30 09:09:40;;;;;;;4.10;2.10;;;;;;;15.25;31.96;99829.95;436267;1251;139367;-61
2023/04/30 09:19:46;;;;;;;3.30;1.70;;;;;;;15.22;31.89;99830.20;437167;1253;140926;-60
2023/04/30 09:29:52;;;;;;;3.90;1.50;;;;;;;14.68;31.47;99835.41;436267;1253;138716;-60
2023/04/30 09:39:58;;;;;;;2.70;1.80;;;;;;;13.96;31.43;99843.81;436741;1251;138461;-60
2023/04/30 09:50:04;;;;;;;1.60;1.50;;;;;;;13.64;32.44;99839.58;436930;1254;139861;-60
2023/04/30 10:00:13;;;;;;;2.10;1.70;;;;;;;13.72;32.67;99839.70;437498;1251;139534;-61
2023/04/30 10:10:20;;;;;;;2.70;1.90;;;;;;;13.34;32.84;99836.81;437529;1250;139764;-60
2023/04/30 10:20:28;;;;;;;4.10;1.80;;;;;;;13.16;33.43;99836.84;436187;1254;138897;-61
2023/04/30 10:30:35;;;;;;;2.70;1.70;;;;;;;13.19;33.31;99841.91;437090;1251;138885;-61
2023/04/30 10:40:40;;;;;;;4.30;2.10;;;;;;;12.97;33.52;99840.08;436711;1251;140416;-60
2023/04/30 10:50:47;;;;;;;3.30;1.90;;;;;;;12.76;33.72;99836.63;437323;1254;139119;-66
2023/04/30 11:01:03;;;;;;;2.80;1.80;;;;;;;12.73;33.87;99834.20;436743;1250;139519;-67
2023/04/30 11:11:13;;;;;;;3.50;3.20;;;;;;;12.70;33.36;99838.27;436811;1251;139401;-67
2023/04/30 11:21:21;;;;;;;3.90;2.60;;;;;;;12.47;33.95;99844.73;436739;1250;140097;-66
2023/04/30 11:31:35;;;;;;;3.30;2.80;;;;;;;12.50;32.91;99848.41;436723;1251;139534;-67
2023/04/30 11:41:45;;;;;;;3.40;2.30;;;;;;;12.43;33.49;99849.24;436677;1253;139873;-67
2023/04/30 11:51:52;;;;;;;3.80;1.40;;;;;;;12.39;33.30;99855.11;436926;1251;139851;-67
2023/04/30 12:01:58;;;;;;;1.90;1.10;;;;;;;12.27;32.82;99855.54;436733;1254;139021;-67
2023/04/30 12:12:04;;;;;;;2.20;1.30;;;;;;;12.37;33.05;99855.40;436746;1251;140003;-67
2023/04/30 12:22:09;;;;;;;3.10;1.20;;;;;;;12.36;33.48;99847.74;436203;1251;140274;-67
2023/04/30 12:32:17;;;;;;;1.60;1.30;;;;;;;12.34;32.95;99850.37;436068;1251;140288;-65
2023/04/30 12:42:24;;;;;;;3.10;2.00;;;;;;;12.31;31.90;99848.95;436287;1254;138321;-66
2023/04/30 12:52:32;;;;;;;3.00;1.30;;;;;;;12.20;31.79;99847.25;436842;1250;138689;-67
2023/04/30 13:02:38;;;;;;;3.20;1.20;;;;;;;12.24;31.75;99839.92;436851;1251;139430;-63
2023/04/30 13:12:44;;;;;;;1.40;1.10;;;;;;;12.29;32.67;99835.55;437060;1254;138447;-66
2023/04/30 13:22:50;;;;;;;3.20;1.30;;;;;;;12.31;32.82;99836.65;436551;1251;140020;-67
2023/04/30 13:32:56;;;;;;;3.00;0.90;;;;;;;12.32;33.40;99835.18;436360;1251;138464;-66
2023/04/30 13:43:03;;;;;;;1.90;1.70;;;;;;;12.41;33.68;99831.45;436731;1251;139978;-67
2023/04/30 13:53:08;;;;;;;1.90;1.20;;;;;;;12.48;33.06;99828.86;436372;1250;139364;-67
2023/04/30 14:03:14;;;;;;;4.50;1.80;;;;;;;12.58;33.43;99828.00;436734;1251;138960;-66
2023/04/30 14:13:21;;;;;;;1.50;1.40;;;;;;;12.64;33.04;99824.11;436936;1251;138476;-67
2023/04/30 14:23:27;;;;;;;2.70;1.40;;;;;;;12.63;32.73;99824.54;436372;1251;140376;-67
2023/04/30 14:33:34;;;;;;;3.00;1.80;;;;;;;12.52;32.96;99824.38;436506;1254;139773;-67
2023/04/30 14:43:40;;;;;;;3.50;1.30;;;;;;;12.45;32.83;99823.46;436594;1254;138318;-67
2023/04/30 14:53:46;;;;;;;4.80;1.30;;;;;;;12.45;32.83;99832.58;436716;1251;139599;-67
2023/04/30 15:03:52;;;;;;;2.70;1.30;;;;;;;12.41;32.29;99837.05;436468;1250;139594;-68
2023/04/30 15:13:58;;;;;;;1.00;1.00;;;;;;;12.41;32.54;99833.92;436839;1250;138988;-67
2023/04/30 15:24:05;;;;;;;2.10;1.30;;;;;;;12.41;32.07;99835.27;436260;1250;140289;-66
2023/04/30 15:34:10;;;;;;;2.80;1.50;;;;;;;12.31;32.25;99841.57;435785;1250;138826;-68
2023/04/30 15:44:16;;;;;;;2.20;1.70;;;;;;;12.21;32.16;99836.42;435745;1250;140824;-67
2023/04/30 15:54:22;;;;;;;2.10;1.30;;;;;;;12.19;32.28;99846.76;435999;1251;138888;-67
2023/04/30 16:04:28;;;;;;;4.90;1.40;;;;;;;12.13;32.30;99846.82;435762;1254;139567;-67
2023/04/30 16:14:34;;;;;;;1.90;1.40;;;;;;;12.05;32.29;99839.27;436544;1251;139365;-67
2023/04/30 16:24:39;;;;;;;2.10;1.30;;;;;;;11.96;31.97;99850.38;436544;1251;140626;-68
2023/04/30 16:34:45;;;;;;;2.10;1.70;;;;;;;11.82;32.49;99851.08;436456;1250;139649;-67
2023/04/30 16:44:51;;;;;;;2.30;1.80;;;;;;;11.69;33.16;99843.67;436640;1250;138926;-67
2023/04/30 16:54:57;;;;;;;3.60;1.50;;;;;;;11.51;33.69;99839.40;436628;1251;138573;-68
2023/04/30 17:05:02;;;;;;;2.90;1.40;;;;;;;11.48;34.01;99842.75;436839;1251;139963;-67
2023/04/30 17:15:10;;;;;;;4.30;1.80;;;;;;;12.06;33.51;99847.13;436667;1253;140148;-67
2023/04/30 17:25:16;;;;;;;3.60;2.40;;;;;;;11.41;34.15;99854.20;436673;1251;139389;-68
2023/04/30 17:35:22;;;;;;;2.50;1.20;;;;;;;10.94;35.06;99864.45;435999;1251;139037;-67
2023/04/30 17:45:28;;;;;;;4.20;1.90;;;;;;;10.51;35.76;99874.70;436087;1251;139575;-68
2023/04/30 17:55:33;;;;;;;3.80;2.00;;;;;;;10.15;36.40;99884.64;436633;1251;138429;-67
2023/04/30 18:05:39;;;;;;;5.20;1.70;;;;;;;9.78;37.00;99895.64;439238;1251;138470;-67
2023/04/30 18:15:45;;;;;;;7.30;3.20;;;;;;;9.39;38.05;99897.36;436426;1254;139629;-66
2023/04/30 18:25:50;;;;;;;3.70;2.30;;;;;;;9.00;39.42;99903.95;436609;1251;139849;-67
2023/04/30 18:35:57;;;;;;;5.10;3.10;;;;;;;8.54;40.88;99916.06;436553;1251;138368;-66
2023/04/30 18:46:04;;;;;;;9.50;3.90;;;;;;;8.11;42.06;99927.23;436471;1254;138186;-67
2023/04/30 18:56:10;;;;;;;9.60;3.40;;;;;;;7.74;44.23;99936.79;436709;1250;139328;-67
2023/04/30 19:06:16;;;;;;;9.50;3.60;;;;;;;7.34;45.87;99941.41;436608;1251;139321;-68
2023/04/30 19:16:22;;;;;;;7.80;4.10;;;;;;;7.00;47.37;99950.73;436511;1254;157342;-67
2023/04/30 19:26:28;;;;;;;6.30;4.00;;;;;;;6.66;48.05;99956.01;436630;1254;139584;-67
2023/04/30 19:36:34;;;;;;;10.70;6.70;;;;;;;6.30;49.49;99956.39;436687;1250;138686;-67
2023/04/30 19:46:41;;;;;;;17.20;11.00;;;;;;;5.99;51.25;99949.10;436642;1251;139491;-68
2023/04/30 19:56:47;;;;;;;15.00;9.90;;;;;;;5.69;52.61;99950.73;436923;1255;138718;-67
2023/04/30 20:06:56;;;;;;;15.70;10.30;;;;;;;5.44;53.70;99949.58;436711;1251;139989;-68
2023/04/30 20:17:02;;;;;;;15.00;11.80;;;;;;;5.18;54.72;99954.17;436370;1251;138669;-68
2023/04/30 20:27:08;;;;;;;17.80;10.30;;;;;;;4.96;55.43;99959.63;436380;1254;138963;-67
2023/04/30 20:37:14;;;;;;;15.70;8.00;;;;;;;4.74;56.04;99960.89;437122;1251;139428;-67
2023/04/30 20:47:20;;;;;;;12.50;9.20;;;;;;;4.53;56.88;99969.71;436813;1256;140039;-68
2023/04/30 20:57:26;;;;;;;15.30;11.20;;;;;;;4.31;57.71;99967.50;436642;1251;138668;-67
2023/04/30 21:07:33;;;;;;;17.70;11.20;;;;;;;4.11;58.46;99979.19;436649;1251;140304;-68
2023/04/30 21:17:39;;;;;;;28.30;19.30;;;;;;;3.97;58.84;99981.85;436663;1251;140340;-67
2023/04/30 21:27:45;;;;;;;27.50;16.90;;;;;;;3.79;59.67;99984.99;436412;1255;139712;-67
2023/04/30 21:37:50;;;;;;;25.40;16.70;;;;;;;3.62;60.91;99991.71;436306;1251;138413;-69
2023/04/30 21:47:56;;;;;;;20.80;16.00;;;;;;;3.46;61.61;100004.98;436053;1251;140942;-66
2023/04/30 21:58:02;;;;;;;26.00;16.90;;;;;;;3.29;62.46;100016.34;436624;1251;140876;-67
2023/04/30 22:08:08;;;;;;;27.20;16.00;;;;;;;3.10;62.67;100026.90;437090;1256;140043;-67
2023/04/30 22:18:13;;;;;;;30.00;20.60;;;;;;;2.93;63.42;100028.36;436384;1251;140582;-66
2023/04/30 22:28:21;;;;;;;26.80;18.50;;;;;;;2.79;64.56;100033.37;436520;1256;139564;-67
2023/04/30 22:38:28;;;;;;;26.00;19.30;;;;;;;2.64;64.69;100043.07;436752;1254;140547;-65
2023/04/30 22:48:34;;;;;;;28.10;21.20;;;;;;;2.48;65.24;100047.06;436515;1254;139354;-67
2023/04/30 22:58:40;;;;;;;31.90;21.90;;;;;;;2.30;65.95;100051.80;436744;1256;140088;-67
2023/04/30 23:08:46;;;;;;;36.50;22.90;;;;;;;2.17;66.50;100052.60;436694;1253;141870;-67
2023/04/30 23:18:52;;;;;;;34.20;22.60;;;;;;;2.03;67.08;100048.06;436513;1255;140387;-68
2023/04/30 23:28:58;;;;;;;33.10;21.60;;;;;;;1.85;67.25;100044.45;436600;1254;140806;-67
2023/04/30 23:39:04;;;;;;;36.90;24.90;;;;;;;1.71;67.83;100046.64;436915;1255;140128;-67
2023/04/30 23:49:09;;;;;;;37.60;25.60;;;;;;;1.56;68.12;100051.58;436577;1256;140090;-67
2023/04/30 23:59:15;;;;;;;43.90;27.70;;;;;;;1.43;68.66;100045.98;436612;1254;140985;-68
